Time;durP1;ratioP1;P1;durP2;ratioP2;P2;SDS_P1;SDS_P2;PMS_P1;PMS_P2;Temp;Humidity;BMP_temperature;BMP_pressure;BME280_temperature;BME280_humidity;BME280_pressure;Samples;Min_cycle;Max_cycle;Signal;HPM_P1;HPM_P2
2021/03/29 00:01:42;;;;;;;12.23;2.53;;;8.90;99.90;;;;;;5035624;28;20087;-84
2021/03/29 00:04:08;;;;;;;10.48;2.60;;;9.20;99.90;;;;;;5038732;28;20452;-84
2021/03/29 00:06:36;;;;;;;11.98;2.63;;;8.80;99.90;;;;;;5024859;28;20109;-84
2021/03/29 00:09:04;;;;;;;11.20;2.28;;;8.90;99.90;;;;;;5031395;28;20041;-84
2021/03/29 00:11:31;;;;;;;18.13;2.97;;;8.90;99.90;;;;;;5030359;28;20110;-83
2021/03/29 00:13:59;;;;;;;12.57;2.65;;;8.90;99.90;;;;;;5045661;28;20033;-84
2021/03/29 00:16:26;;;;;;;12.15;2.58;;;8.90;99.90;;;;;;5027620;28;20040;-84
2021/03/29 00:18:53;;;;;;;14.40;2.78;;;9.00;99.90;;;;;;5018531;28;20087;-84
2021/03/29 00:21:19;;;;;;;15.30;2.47;;;9.00;99.90;;;;;;5048008;28;20037;-86
2021/03/29 00:23:45;;;;;;;11.70;2.40;;;9.00;99.90;;;;;;5032526;28;20381;-84
2021/03/29 00:26:11;;;;;;;9.43;2.70;;;9.00;99.90;;;;;;5026025;28;20048;-84
2021/03/29 00:28:55;;;;;;;13.63;2.42;;;9.10;99.90;;;;;;5051452;28;20567;-84
2021/03/29 00:31:21;;;;;;;14.10;2.57;;;9.20;99.90;;;;;;5016805;28;20045;-85
2021/03/29 00:33:50;;;;;;;13.35;2.45;;;9.00;99.90;;;;;;5033041;28;20797;-84
2021/03/29 00:36:16;;;;;;;10.20;2.20;;;9.70;99.90;;;;;;5026017;28;20040;-83
2021/03/29 00:38:42;;;;;;;13.20;2.72;;;9.50;99.90;;;;;;5027486;28;20057;-84
2021/03/29 00:41:10;;;;;;;15.93;2.67;;;9.00;99.90;;;;;;5012320;28;20041;-86
2021/03/29 00:43:39;;;;;;;7.68;2.30;;;9.50;99.90;;;;;;5009619;28;20400;-85
2021/03/29 00:46:07;;;;;;;12.35;2.50;;;9.30;99.90;;;;;;5033249;28;20484;-84
2021/03/29 00:48:34;;;;;;;9.35;2.25;;;9.20;99.90;;;;;;5032121;28;20121;-84
2021/03/29 00:51:14;;;;;;;15.75;2.85;;;9.60;99.90;;;;;;5027245;28;20043;-84
2021/03/29 00:53:43;;;;;;;10.00;2.13;;;9.20;99.90;;;;;;5046454;28;20051;-84
2021/03/29 00:56:11;;;;;;;12.23;2.58;;;9.20;99.90;;;;;;5031304;28;20032;-84
2021/03/29 00:58:38;;;;;;;15.20;2.80;;;9.40;99.90;;;;;;5024658;28;20048;-84
2021/03/29 01:01:10;;;;;;;13.93;2.53;;;9.40;99.90;;;;;;5041494;28;20446;-84
2021/03/29 01:03:43;;;;;;;13.90;2.92;;;9.20;99.90;;;;;;5029175;28;20044;-86
2021/03/29 01:06:15;;;;;;;9.68;2.53;;;9.20;99.90;;;;;;5030554;28;20037;-85
2021/03/29 01:08:44;;;;;;;15.52;2.65;;;9.10;99.90;;;;;;5026540;28;20032;-84
2021/03/29 01:11:13;;;;;;;10.75;2.58;;;9.10;99.90;;;;;;5045584;28;20034;-83
2021/03/29 01:13:46;;;;;;;14.70;2.80;;;9.10;99.90;;;;;;5027326;28;20045;-85
2021/03/29 01:16:14;;;;;;;14.07;2.85;;;9.20;99.90;;;;;;5020410;28;20087;-85
2021/03/29 01:18:43;;;;;;;15.25;2.70;;;9.10;99.90;;;;;;5026865;28;20397;-84
2021/03/29 01:21:28;;;;;;;11.55;2.60;;;9.10;99.90;;;;;;5031514;28;20128;-85
2021/03/29 01:24:01;;;;;;;7.97;2.40;;;9.40;99.90;;;;;;5047875;28;20099;-84
2021/03/29 01:26:44;;;;;;;11.30;2.30;;;9.20;99.90;;;;;;5014278;28;20103;-84
2021/03/29 01:29:12;;;;;;;14.57;2.90;;;9.20;99.90;;;;;;5029933;28;20048;-84
2021/03/29 01:31:39;;;;;;;10.80;2.50;;;9.20;99.90;;;;;;5031406;28;20587;-85
2021/03/29 01:34:07;;;;;;;11.40;2.13;;;9.20;99.90;;;;;;5011936;28;20053;-84
2021/03/29 01:36:33;;;;;;;13.80;2.67;;;9.20;99.90;;;;;;5030320;28;20035;-83
2021/03/29 01:39:00;;;;;;;10.82;2.85;;;9.30;99.90;;;;;;5045911;28;20033;-84
2021/03/29 01:41:27;;;;;;;10.98;2.38;;;9.30;99.90;;;;;;5027090;28;20159;-83
2021/03/29 01:44:30;;;;;;;11.82;3.13;;;9.30;99.90;;;;;;5036936;28;20123;-84
2021/03/29 01:46:56;;;;;;;10.63;2.42;;;9.20;99.90;;;;;;5034050;28;20045;-84
2021/03/29 01:49:23;;;;;;;10.73;2.40;;;9.40;99.90;;;;;;5022053;28;20052;-83
2021/03/29 01:51:49;;;;;;;11.38;2.50;;;9.30;99.90;;;;;;5025767;28;20072;-83
2021/03/29 01:54:16;;;;;;;13.77;3.00;;;9.30;99.90;;;;;;5042548;28;20053;-83
2021/03/29 01:56:42;;;;;;;11.15;3.03;;;9.60;99.90;;;;;;5038921;28;20551;-84
2021/03/29 01:59:49;;;;;;;12.18;2.60;;;9.50;99.90;;;;;;5056296;28;20183;-84
2021/03/29 02:02:17;;;;;;;9.70;2.58;;;9.30;99.90;;;;;;5051974;28;20033;-82
2021/03/29 02:04:45;;;;;;;10.30;2.30;;;9.30;99.90;;;;;;5054394;28;20041;-84
2021/03/29 02:07:13;;;;;;;8.85;2.75;;;9.30;99.90;;;;;;5019496;28;20041;-83
2021/03/29 02:09:40;;;;;;;13.25;2.85;;;9.50;99.90;;;;;;5032588;28;20094;-85
2021/03/29 02:12:08;;;;;;;14.43;3.25;;;9.30;99.90;;;;;;5029772;28;20507;-85
2021/03/29 02:14:35;;;;;;;16.83;3.10;;;9.30;99.90;;;;;;5017210;28;20057;-84
2021/03/29 02:17:05;;;;;;;11.48;2.83;;;9.40;99.90;;;;;;5017803;28;20053;-84
2021/03/29 02:19:32;;;;;;;14.60;3.28;;;9.20;99.90;;;;;;5032958;28;20502;-85
2021/03/29 02:21:58;;;;;;;17.92;3.35;;;9.40;99.90;;;;;;5022271;28;20033;-85
2021/03/29 02:24:26;;;;;;;11.07;3.00;;;9.20;99.90;;;;;;5012909;28;20057;-84
2021/03/29 02:26:53;;;;;;;9.13;2.85;;;9.40;99.90;;;;;;5050560;28;20033;-85
2021/03/29 02:29:26;;;;;;;12.80;3.63;;;9.20;99.90;;;;;;5030490;28;20041;-84
2021/03/29 02:31:56;;;;;;;14.30;2.75;;;9.30;99.90;;;;;;5033706;28;20090;-84
2021/03/29 02:34:23;;;;;;;12.30;3.00;;;9.50;99.90;;;;;;5045334;28;20033;-84
2021/03/29 02:36:51;;;;;;;13.50;2.60;;;9.40;99.90;;;;;;5048634;28;20048;-84
2021/03/29 02:39:19;;;;;;;18.95;3.17;;;9.50;99.90;;;;;;5042547;28;20028;-84
2021/03/29 02:41:47;;;;;;;14.88;2.90;;;9.20;99.90;;;;;;5021036;28;20065;-83
2021/03/29 02:44:15;;;;;;;12.45;3.00;;;9.40;99.90;;;;;;5031427;28;20040;-83
2021/03/29 02:46:42;;;;;;;14.20;2.85;;;9.30;99.90;;;;;;5024895;28;20049;-86
2021/03/29 02:49:08;;;;;;;14.55;3.00;;;9.30;99.90;;;;;;5031730;28;20041;-85
2021/03/29 02:51:35;;;;;;;12.95;3.05;;;9.20;99.90;;;;;;5015808;28;20041;-84
2021/03/29 02:54:05;;;;;;;10.63;3.33;;;9.10;99.90;;;;;;5050209;28;20033;-84
2021/03/29 02:56:43;;;;;;;11.18;3.40;;;9.10;99.90;;;;;;5033505;28;20480;-84
2021/03/29 02:59:15;;;;;;;10.98;3.33;;;9.40;99.90;;;;;;5050690;28;20059;-85
2021/03/29 03:01:42;;;;;;;11.93;3.22;;;9.10;99.90;;;;;;5030481;28;20036;-84
2021/03/29 03:04:14;;;;;;;11.68;2.92;;;9.10;99.90;;;;;;5030531;28;20040;-84
2021/03/29 03:06:41;;;;;;;18.13;3.22;;;9.10;99.90;;;;;;5028053;28;20055;-84
2021/03/29 03:09:10;;;;;;;13.30;3.58;;;9.00;99.90;;;;;;5043820;28;20052;-84
2021/03/29 03:11:36;;;;;;;10.15;2.67;;;9.10;99.90;;;;;;5047249;28;20505;-84
2021/03/29 03:14:07;;;;;;;17.38;3.13;;;9.40;99.90;;;;;;5029105;28;20037;-85
2021/03/29 03:16:36;;;;;;;13.05;3.05;;;9.20;99.90;;;;;;5042547;28;20048;-85
2021/03/29 03:19:07;;;;;;;13.85;2.90;;;9.50;99.90;;;;;;5025473;28;20055;-84
2021/03/29 03:21:34;;;;;;;10.55;2.70;;;9.30;99.90;;;;;;5043504;28;20052;-84
2021/03/29 03:24:01;;;;;;;10.27;2.60;;;9.40;99.90;;;;;;5042394;28;20041;-85
2021/03/29 03:26:31;;;;;;;10.75;3.15;;;9.30;99.90;;;;;;5043739;28;20053;-84
2021/03/29 03:28:57;;;;;;;14.80;3.22;;;9.50;99.90;;;;;;5029804;28;20114;-84
2021/03/29 03:31:23;;;;;;;11.05;2.60;;;9.50;99.90;;;;;;5013327;28;20048;-84
2021/03/29 03:33:51;;;;;;;14.90;3.13;;;9.30;99.90;;;;;;5032647;28;20473;-84
2021/03/29 03:36:19;;;;;;;13.32;3.38;;;9.30;99.90;;;;;;5032687;28;20048;-85
2021/03/29 03:38:48;;;;;;;11.30;3.13;;;9.30;99.90;;;;;;5038025;28;20033;-84
2021/03/29 03:41:23;;;;;;;14.43;3.40;;;9.30;99.90;;;;;;5031036;28;20127;-84
2021/03/29 03:43:51;;;;;;;14.82;3.65;;;9.40;99.90;;;;;;5039164;28;20061;-85
2021/03/29 03:46:21;;;;;;;16.50;2.70;;;9.40;99.90;;;;;;5033218;28;20507;-85
2021/03/29 03:48:47;;;;;;;10.77;2.90;;;9.30;99.90;;;;;;5015635;28;20543;-85
2021/03/29 03:51:14;;;;;;;12.75;3.10;;;9.40;99.90;;;;;;5033005;28;20035;-85
2021/03/29 03:53:41;;;;;;;12.07;2.70;;;9.30;99.90;;;;;;5014429;28;20041;-84
2021/03/29 03:56:07;;;;;;;17.40;3.13;;;9.40;99.90;;;;;;5050416;28;20060;-85
2021/03/29 03:58:33;;;;;;;15.27;2.97;;;9.40;99.90;;;;;;5039229;28;20040;-83
2021/03/29 04:01:00;;;;;;;8.20;2.65;;;9.40;99.90;;;;;;5041938;28;20037;-84
2021/03/29 04:03:27;;;;;;;13.88;3.08;;;9.40;99.90;;;;;;5047275;28;20072;-83
2021/03/29 04:05:54;;;;;;;16.45;2.60;;;9.30;99.90;;;;;;5028925;28;20536;-84
2021/03/29 04:08:21;;;;;;;9.45;2.78;;;9.20;99.90;;;;;;5040472;28;20088;-84
2021/03/29 04:10:56;;;;;;;10.35;2.72;;;9.40;99.90;;;;;;5029811;28;20404;-84
2021/03/29 04:14:27;;;;;;;13.57;2.90;;;9.40;99.90;;;;;;5028930;28;20053;-83
2021/03/29 04:16:53;;;;;;;12.05;2.60;;;9.40;99.90;;;;;;5033550;28;20057;-84
2021/03/29 04:19:19;;;;;;;11.82;3.03;;;9.40;99.90;;;;;;5029791;28;20049;-84
2021/03/29 04:21:45;;;;;;;15.48;3.28;;;9.30;99.90;;;;;;5044120;28;20051;-84
2021/03/29 04:24:11;;;;;;;14.10;3.40;;;9.30;99.90;;;;;;5024862;28;20117;-85
2021/03/29 04:26:37;;;;;;;11.63;2.63;;;9.40;99.90;;;;;;5030059;28;20034;-85
2021/03/29 04:29:03;;;;;;;15.65;3.33;;;9.30;99.90;;;;;;5020738;28;20060;-84
2021/03/29 04:31:29;;;;;;;15.93;3.40;;;9.40;99.90;;;;;;5031255;28;20049;-85
2021/03/29 04:33:54;;;;;;;12.27;3.20;;;9.30;99.90;;;;;;5032579;28;20377;-84
2021/03/29 04:36:20;;;;;;;19.73;3.42;;;9.30;99.90;;;;;;5044370;28;20061;-85
2021/03/29 04:38:46;;;;;;;17.98;3.63;;;9.20;99.90;;;;;;5027741;28;20029;-84
2021/03/29 04:41:12;;;;;;;10.90;2.95;;;9.30;99.90;;;;;;5024120;28;20120;-84
2021/03/29 04:43:37;;;;;;;19.02;3.67;;;9.20;99.90;;;;;;5030016;28;20044;-84
2021/03/29 04:46:03;;;;;;;22.08;3.85;;;9.20;99.90;;;;;;5008862;28;20468;-84
2021/03/29 04:48:29;;;;;;;15.27;4.10;;;9.10;99.90;;;;;;5017187;28;20045;-83
2021/03/29 04:50:54;;;;;;;16.40;3.50;;;9.10;99.90;;;;;;5047150;28;20037;-84
2021/03/29 04:53:20;;;;;;;12.27;3.15;;;9.10;99.90;;;;;;5047169;28;20087;-83
2021/03/29 04:56:01;;;;;;;13.00;3.30;;;9.30;99.90;;;;;;4966341;28;20042;-83
2021/03/29 04:58:27;;;;;;;12.50;3.25;;;9.30;99.90;;;;;;4968400;28;20046;-83
2021/03/29 05:00:53;;;;;;;14.00;3.45;;;9.10;99.90;;;;;;4937340;28;20038;-83
2021/03/29 05:03:19;;;;;;;14.73;3.03;;;9.00;99.90;;;;;;4961566;28;20047;-83
2021/03/29 05:05:45;;;;;;;17.27;3.38;;;9.30;99.90;;;;;;4968546;28;20455;-84
2021/03/29 05:08:10;;;;;;;14.13;3.50;;;9.50;99.90;;;;;;4968626;28;20047;-83
2021/03/29 05:10:40;;;;;;;12.32;3.50;;;9.10;99.90;;;;;;4965891;28;20046;-83
2021/03/29 05:13:06;;;;;;;14.40;3.58;;;9.00;99.90;;;;;;4954504;28;20057;-82
2021/03/29 05:15:32;;;;;;;12.77;3.45;;;9.00;99.90;;;;;;4970946;28;20576;-83
2021/03/29 05:17:58;;;;;;;28.13;3.90;;;8.70;99.90;;;;;;4955547;28;20043;-82
2021/03/29 05:20:24;;;;;;;12.68;3.30;;;9.00;99.90;;;;;;4972691;28;20055;-82
2021/03/29 05:22:50;;;;;;;15.25;3.88;;;9.10;99.90;;;;;;4971743;28;20484;-82
2021/03/29 05:25:16;;;;;;;21.63;3.58;;;9.10;99.90;;;;;;4956170;28;20109;-84
2021/03/29 05:27:43;;;;;;;14.63;3.28;;;9.00;99.90;;;;;;4955739;28;20122;-82
2021/03/29 05:30:09;;;;;;;16.35;3.80;;;9.10;99.90;;;;;;4963863;28;20094;-82
2021/03/29 05:32:35;;;;;;;13.48;3.28;;;9.00;99.90;;;;;;4973940;28;20107;-82
2021/03/29 05:35:02;;;;;;;17.00;3.50;;;8.90;99.90;;;;;;5004700;28;20491;-81
2021/03/29 05:37:29;;;;;;;14.32;3.45;;;9.10;99.90;;;;;;5012343;28;20132;-80
2021/03/29 05:39:56;;;;;;;16.73;3.88;;;9.10;99.90;;;;;;5008727;28;20113;-82
2021/03/29 05:42:25;;;;;;;12.48;3.38;;;9.10;99.90;;;;;;5009057;28;20046;-80
2021/03/29 05:45:09;;;;;;;21.02;3.58;;;9.20;99.90;;;;;;4995045;28;20076;-80
2021/03/29 05:47:36;;;;;;;17.80;3.63;;;9.20;99.90;;;;;;4997554;28;20086;-81
2021/03/29 05:50:07;;;;;;;19.98;3.38;;;9.30;99.90;;;;;;5014157;28;20044;-81
2021/03/29 05:52:37;;;;;;;24.08;3.63;;;9.30;99.90;;;;;;5005813;28;20048;-81
2021/03/29 05:55:08;;;;;;;18.52;3.67;;;9.20;99.90;;;;;;5007657;28;20036;-81
2021/03/29 05:57:53;;;;;;;10.35;3.00;;;9.30;99.90;;;;;;5009399;28;20142;-80
2021/03/29 06:00:31;;;;;;;18.40;3.47;;;9.50;99.90;;;;;;5014828;28;20045;-80
2021/03/29 06:03:36;;;;;;;18.35;3.40;;;9.20;99.90;;;;;;5024430;28;20046;-78
2021/03/29 06:06:14;;;;;;;16.73;3.58;;;9.20;99.90;;;;;;4996580;28;20066;-80
2021/03/29 06:08:45;;;;;;;16.67;3.67;;;9.20;99.90;;;;;;5020895;28;20074;-80
2021/03/29 06:11:31;;;;;;;17.42;3.47;;;9.10;99.90;;;;;;4999002;28;20046;-80
2021/03/29 06:14:18;;;;;;;13.85;3.35;;;9.10;99.90;;;;;;5054731;28;20052;-81
2021/03/29 06:17:05;;;;;;;14.73;3.97;;;9.10;99.90;;;;;;5037057;28;20106;-80
2021/03/29 06:19:51;;;;;;;20.75;3.78;;;9.10;99.90;;;;;;5051642;28;20046;-81
2021/03/29 06:22:31;;;;;;;16.23;3.20;;;9.10;99.90;;;;;;5023798;28;20044;-81
2021/03/29 06:24:57;;;;;;;18.63;3.88;;;9.10;99.90;;;;;;5031686;28;20050;-81
2021/03/29 06:27:28;;;;;;;17.67;3.67;;;9.20;99.90;;;;;;5026064;28;20044;-81
2021/03/29 06:30:32;;;;;;;17.75;3.25;;;9.30;99.90;;;;;;5033640;28;20041;-81
2021/03/29 06:33:14;;;;;;;18.42;4.10;;;9.30;99.90;;;;;;5037254;28;20036;-81
2021/03/29 06:35:50;;;;;;;16.83;3.00;;;9.40;99.90;;;;;;5036866;28;20473;-80
2021/03/29 06:38:18;;;;;;;18.52;3.40;;;9.40;99.90;;;;;;5047817;28;20060;-82
2021/03/29 06:40:50;;;;;;;16.40;3.40;;;9.40;99.90;;;;;;5047892;28;20546;-79
2021/03/29 06:43:41;;;;;;;18.27;4.00;;;9.40;99.90;;;;;;5051754;28;20048;-81
2021/03/29 06:46:18;;;;;;;15.50;3.20;;;9.50;99.90;;;;;;5033206;28;20048;-81
2021/03/29 06:48:44;;;;;;;19.15;3.65;;;9.50;99.90;;;;;;5049831;28;20028;-80
2021/03/29 06:51:26;;;;;;;23.13;4.28;;;9.50;99.90;;;;;;5032932;28;20041;-83
2021/03/29 06:53:56;;;;;;;18.38;3.97;;;9.60;99.90;;;;;;5048157;28;20041;-84
2021/03/29 06:56:28;;;;;;;26.67;4.28;;;9.60;99.90;;;;;;5043877;28;20128;-85
2021/03/29 06:59:07;;;;;;;19.27;3.70;;;9.70;99.90;;;;;;5031727;28;20086;-85
2021/03/29 07:01:47;;;;;;;23.48;4.35;;;9.70;99.90;;;;;;5049034;28;20039;-85
2021/03/29 07:04:14;;;;;;;20.27;4.28;;;9.70;99.90;;;;;;5029399;28;20041;-85
2021/03/29 07:06:42;;;;;;;19.10;4.00;;;9.80;99.90;;;;;;5027245;28;20056;-85
2021/03/29 07:09:10;;;;;;;11.38;3.20;;;9.90;99.90;;;;;;5052600;28;20126;-86
2021/03/29 07:11:37;;;;;;;16.02;3.30;;;9.90;99.90;;;;;;5037781;28;20049;-90
2021/03/29 07:14:05;;;;;;;24.52;3.58;;;10.00;99.90;;;;;;5047618;28;20037;-88
2021/03/29 07:16:32;;;;;;;30.35;4.43;;;10.10;99.90;;;;;;5050546;28;20037;-84
2021/03/29 07:19:08;;;;;;;26.70;4.50;;;10.10;99.90;;;;;;5055239;28;20464;-89
2021/03/29 07:21:35;;;;;;;19.38;4.03;;;10.20;99.90;;;;;;5036505;28;20060;-83
2021/03/29 07:24:04;;;;;;;22.08;4.55;;;10.30;99.90;;;;;;5022642;28;20072;-86
2021/03/29 07:26:40;;;;;;;21.95;3.95;;;10.30;99.90;;;;;;5054306;28;20113;-87
2021/03/29 07:29:32;;;;;;;21.67;3.88;;;10.50;99.90;;;;;;5002314;28;20052;-90
2021/03/29 07:32:00;;;;;;;26.02;4.55;;;10.30;99.90;;;;;;5031395;28;20103;-85
2021/03/29 07:34:47;;;;;;;14.18;3.63;;;10.40;99.90;;;;;;5022066;28;20028;-93
2021/03/29 07:37:41;;;;;;;19.88;4.10;;;10.40;99.90;;;;;;5039648;28;20029;-90
2021/03/29 07:40:18;;;;;;;19.10;3.88;;;10.50;99.90;;;;;;5040880;28;20126;-93
2021/03/29 07:42:45;;;;;;;20.42;4.10;;;10.60;99.90;;;;;;5006844;28;20405;-89
2021/03/29 07:45:26;;;;;;;22.88;4.22;;;10.80;99.90;;;;;;5040931;28;20061;-89
2021/03/29 07:47:54;;;;;;;20.50;4.00;;;10.60;99.90;;;;;;5033150;28;20053;-83
2021/03/29 07:50:29;;;;;;;19.70;4.63;;;10.60;99.90;;;;;;5034895;28;20171;-88
2021/03/29 07:52:59;;;;;;;23.02;4.40;;;10.70;99.90;;;;;;5031416;28;20143;-84
2021/03/29 07:55:43;;;;;;;29.98;4.88;;;10.70;99.90;;;;;;5029503;28;20053;-85
2021/03/29 07:58:26;;;;;;;16.00;4.03;;;10.80;99.90;;;;;;5035403;28;20041;-88
2021/03/29 08:01:14;;;;;;;27.30;5.18;;;10.80;99.90;;;;;;5028156;28;20041;-90
2021/03/29 08:03:45;;;;;;;19.77;3.83;;;10.80;99.90;;;;;;5026501;28;20785;-87
2021/03/29 08:06:44;;;;;;;24.08;4.20;;;10.90;99.90;;;;;;5020843;28;20044;-87
2021/03/29 08:09:13;;;;;;;20.90;4.50;;;10.90;99.90;;;;;;5052342;28;20036;-84
2021/03/29 08:12:03;;;;;;;17.25;4.03;;;10.90;99.90;;;;;;5018583;28;20080;-84
2021/03/29 08:14:38;;;;;;;24.75;5.13;;;11.00;99.90;;;;;;5017204;28;20477;-82
2021/03/29 08:17:45;;;;;;;24.45;4.95;;;11.10;99.90;;;;;;5035727;28;20037;-82
2021/03/29 08:20:20;;;;;;;23.75;4.13;;;11.10;99.90;;;;;;5020407;28;20052;-83
2021/03/29 08:23:25;;;;;;;21.00;3.90;;;11.10;99.90;;;;;;5054258;28;20052;-80
2021/03/29 08:26:19;;;;;;;22.80;4.63;;;11.20;99.90;;;;;;5020106;28;20052;-83
2021/03/29 08:29:10;;;;;;;21.70;4.90;;;11.30;99.90;;;;;;5041473;28;20393;-82
2021/03/29 08:31:59;;;;;;;25.23;4.65;;;11.30;99.90;;;;;;5054775;28;20034;-81
2021/03/29 08:34:26;;;;;;;18.75;4.20;;;11.50;99.90;;;;;;5053028;28;20105;-81
2021/03/29 08:36:58;;;;;;;27.27;5.00;;;11.50;99.90;;;;;;5049447;28;20041;-81
2021/03/29 08:39:24;;;;;;;21.42;4.50;;;11.50;99.90;;;;;;5039541;28;20056;-82
2021/03/29 08:41:51;;;;;;;22.23;4.45;;;11.60;99.90;;;;;;5055423;28;20045;-83
2021/03/29 08:44:19;;;;;;;23.27;5.35;;;11.60;99.90;;;;;;5035792;28;20056;-81
2021/03/29 08:46:47;;;;;;;21.73;5.03;;;11.70;99.90;;;;;;5034061;28;20041;-83
2021/03/29 08:49:13;;;;;;;19.70;4.15;;;11.80;99.90;;;;;;5017585;28;20037;-82
2021/03/29 08:51:39;;;;;;;14.70;4.07;;;11.90;99.90;;;;;;5035246;28;20037;-81
2021/03/29 08:54:10;;;;;;;21.95;4.70;;;12.00;99.90;;;;;;5035483;28;20048;-81
2021/03/29 08:56:44;;;;;;;21.60;5.15;;;12.00;99.90;;;;;;5053299;28;20029;-81
2021/03/29 08:59:11;;;;;;;21.67;4.27;;;12.10;99.90;;;;;;5028864;28;20199;-82
2021/03/29 09:01:41;;;;;;;21.17;5.22;;;12.20;99.90;;;;;;5032441;28;20037;-81
2021/03/29 09:04:08;;;;;;;21.10;4.90;;;12.30;99.90;;;;;;5018366;28;20056;-83
2021/03/29 09:06:35;;;;;;;23.58;5.70;;;12.20;99.90;;;;;;5033824;28;20045;-84
2021/03/29 09:09:11;;;;;;;20.50;4.88;;;12.20;99.90;;;;;;5026165;28;20037;-82
2021/03/29 09:11:43;;;;;;;;;;;12.20;99.90;;;;;;5024892;28;20045;-81
2021/03/29 09:14:11;;;;;;;19.10;4.75;;;12.30;99.90;;;;;;5009235;28;20762;-81
2021/03/29 09:16:38;;;;;;;24.15;4.82;;;12.20;99.90;;;;;;5002284;28;20038;-82
2021/03/29 09:19:15;;;;;;;22.75;5.15;;;12.20;99.90;;;;;;5006570;28;20053;-82
2021/03/29 09:21:42;;;;;;;22.40;5.35;;;12.20;99.90;;;;;;5006469;28;20089;-84
2021/03/29 09:24:25;;;;;;;24.20;5.18;;;12.10;99.90;;;;;;5007043;28;20489;-83
2021/03/29 09:27:02;;;;;;;30.40;6.40;;;12.40;99.90;;;;;;5008708;28;20037;-82
2021/03/29 09:29:34;;;;;;;21.67;4.93;;;12.40;99.90;;;;;;5010102;28;20053;-82
2021/03/29 09:32:09;;;;;;;18.90;4.70;;;12.40;99.90;;;;;;4992161;28;20065;-83
2021/03/29 09:34:38;;;;;;;21.45;5.25;;;12.50;99.90;;;;;;5024786;28;20037;-84
2021/03/29 09:37:15;;;;;;;24.33;5.57;;;12.40;99.90;;;;;;5010885;28;20042;-83
2021/03/29 09:39:41;;;;;;;20.48;5.65;;;12.50;99.90;;;;;;5010843;28;20030;-84
2021/03/29 09:42:06;;;;;;;21.48;5.22;;;12.50;99.90;;;;;;5011554;28;20044;-83
2021/03/29 09:44:33;;;;;;;22.52;6.07;;;12.50;99.90;;;;;;5007467;28;20386;-84
2021/03/29 09:47:00;;;;;;;21.08;5.55;;;12.70;99.90;;;;;;4992690;28;20253;-86
2021/03/29 09:49:29;;;;;;;28.92;6.18;;;12.50;99.90;;;;;;5005806;28;20421;-83
2021/03/29 09:52:04;;;;;;;22.50;5.88;;;12.50;99.90;;;;;;5009495;28;20054;-82
2021/03/29 09:54:33;;;;;;;21.15;5.88;;;12.60;99.90;;;;;;5012446;28;20045;-80
2021/03/29 09:57:21;;;;;;;22.00;5.72;;;12.60;99.90;;;;;;5012113;28;20053;-83
2021/03/29 09:59:48;;;;;;;26.90;6.28;;;12.40;99.90;;;;;;5015241;28;20034;-81
2021/03/29 10:02:17;;;;;;;22.65;6.45;;;12.60;99.90;;;;;;5014729;28;20112;-82
2021/03/29 10:04:45;;;;;;;18.00;5.45;;;12.60;99.90;;;;;;5015936;28;20045;-80
2021/03/29 10:07:17;;;;;;;27.05;6.88;;;12.70;99.90;;;;;;4997264;28;20073;-83
2021/03/29 10:09:47;;;;;;;21.58;6.30;;;12.80;99.90;;;;;;5013206;28;20482;-80
2021/03/29 10:12:25;;;;;;;26.70;7.05;;;13.00;99.90;;;;;;5001562;28;20077;-81
2021/03/29 10:15:07;;;;;;;23.77;5.68;;;13.30;99.90;;;;;;4999525;28;20052;-81
2021/03/29 10:17:33;;;;;;;26.52;6.45;;;13.50;99.90;;;;;;4984384;28;20046;-81
2021/03/29 10:20:07;;;;;;;26.73;6.57;;;13.60;99.90;;;;;;5013736;28;20037;-80
2021/03/29 10:22:33;;;;;;;23.30;6.60;;;13.80;99.90;;;;;;4997447;28;20050;-81
2021/03/29 10:25:07;;;;;;;27.88;7.18;;;14.00;99.90;;;;;;5013393;28;20061;-82
2021/03/29 10:27:46;;;;;;;27.98;6.65;;;14.00;99.90;;;;;;5014956;28;20494;-83
2021/03/29 10:30:34;;;;;;;24.52;6.90;;;14.00;99.90;;;;;;4998966;28;20055;-81
2021/03/29 10:33:04;;;;;;;21.55;6.85;;;14.20;99.90;;;;;;4993837;28;20042;-82
2021/03/29 10:35:31;;;;;;;24.70;6.80;;;14.20;99.90;;;;;;4979602;28;20053;-83
2021/03/29 10:37:57;;;;;;;27.67;6.82;;;14.20;99.90;;;;;;5001491;28;20030;-81
2021/03/29 10:40:23;;;;;;;24.33;6.78;;;14.10;99.90;;;;;;5013312;28;20054;-84
2021/03/29 10:42:50;;;;;;;22.67;6.50;;;14.20;99.90;;;;;;5014738;28;20503;-81
2021/03/29 10:45:17;;;;;;;22.45;6.63;;;14.10;99.90;;;;;;5013859;28;20046;-84
2021/03/29 10:47:44;;;;;;;28.33;7.10;;;14.00;99.90;;;;;;5011169;28;20061;-82
2021/03/29 10:50:13;;;;;;;20.38;6.00;;;13.90;99.90;;;;;;5014446;28;20056;-82
2021/03/29 10:52:39;;;;;;;21.63;6.78;;;13.80;99.90;;;;;;5014478;28;20374;-81
2021/03/29 10:55:06;;;;;;;29.08;7.10;;;13.80;99.90;;;;;;5011020;28;20038;-82
2021/03/29 10:57:32;;;;;;;29.85;6.93;;;13.90;99.90;;;;;;5008811;28;20073;-82
2021/03/29 10:59:58;;;;;;;25.95;6.72;;;14.00;99.90;;;;;;5012939;28;20041;-84
2021/03/29 11:02:24;;;;;;;23.95;6.68;;;14.00;99.90;;;;;;5016528;28;20466;-83
2021/03/29 11:04:49;;;;;;;21.98;7.13;;;14.10;99.90;;;;;;5008021;28;20490;-84
2021/03/29 11:07:15;;;;;;;23.60;6.60;;;14.20;99.90;;;;;;5007921;28;20035;-85
2021/03/29 11:09:41;;;;;;;25.05;7.38;;;14.10;99.90;;;;;;4992913;28;20062;-82
2021/03/29 11:12:08;;;;;;;26.65;6.57;;;14.10;99.90;;;;;;5027685;28;20044;-81
2021/03/29 11:14:35;;;;;;;23.92;7.13;;;14.20;99.90;;;;;;5035689;28;20061;-83
2021/03/29 11:17:02;;;;;;;29.67;7.85;;;14.20;99.90;;;;;;5045948;28;20043;-84
2021/03/29 11:19:28;;;;;;;20.70;6.75;;;14.30;99.90;;;;;;5035481;28;20090;-82
2021/03/29 11:21:53;;;;;;;28.05;7.72;;;14.40;99.90;;;;;;5052554;28;20062;-82
2021/03/29 11:24:20;;;;;;;24.40;7.85;;;14.70;99.90;;;;;;5053369;28;20104;-83
2021/03/29 11:26:52;;;;;;;23.02;7.70;;;14.80;99.90;;;;;;5039521;28;20045;-84
2021/03/29 11:29:38;;;;;;;29.48;7.35;;;14.80;99.90;;;;;;5027742;28;20160;-86
2021/03/29 11:32:04;;;;;;;25.55;6.93;;;14.80;99.90;;;;;;5018788;28;20110;-84
2021/03/29 11:34:30;;;;;;;25.30;7.97;;;14.90;99.90;;;;;;5015984;28;20543;-83
2021/03/29 11:36:56;;;;;;;20.38;6.40;;;15.00;99.90;;;;;;5029059;28;20033;-86
2021/03/29 11:39:22;;;;;;;21.88;6.85;;;14.80;99.90;;;;;;5016005;28;20137;-84
2021/03/29 11:41:47;;;;;;;18.73;6.65;;;14.60;99.90;;;;;;5037856;28;20121;-84
2021/03/29 11:44:13;;;;;;;22.25;6.68;;;14.70;99.90;;;;;;5049439;28;20041;-83
2021/03/29 11:46:39;;;;;;;19.92;6.55;;;14.70;99.90;;;;;;5046345;28;20068;-84
2021/03/29 11:49:05;;;;;;;22.00;7.20;;;14.40;99.90;;;;;;5032854;28;20131;-81
2021/03/29 11:51:31;;;;;;;20.40;6.18;;;14.50;99.90;;;;;;5035653;28;20033;-80
2021/03/29 11:54:00;;;;;;;22.88;6.20;;;14.60;99.90;;;;;;5019679;28;20060;-80
2021/03/29 11:56:26;;;;;;;21.63;6.38;;;14.40;99.90;;;;;;5035521;28;20086;-80
2021/03/29 11:58:52;;;;;;;18.15;5.85;;;14.50;99.90;;;;;;5053303;28;20033;-82
2021/03/29 12:01:40;;;;;;;26.92;6.07;;;14.50;99.90;;;;;;5034775;28;20060;-80
2021/03/29 12:04:15;;;;;;;18.75;5.55;;;14.50;99.90;;;;;;5036002;28;20033;-82
2021/03/29 12:09:44;;;;;;;26.48;6.28;;;14.90;99.90;;;;;;4959091;28;20392;-82
2021/03/29 12:12:30;;;;;;;20.30;5.65;;;15.10;99.90;;;;;;4955634;28;20063;-85
2021/03/29 12:14:58;;;;;;;21.30;6.10;;;15.20;99.90;;;;;;4968378;28;20047;-87
2021/03/29 12:17:24;;;;;;;20.85;6.22;;;14.90;99.90;;;;;;4971731;28;20548;-81
2021/03/29 12:19:50;;;;;;;27.85;6.10;;;14.80;99.90;;;;;;4971019;28;20066;-82
2021/03/29 12:22:24;;;;;;;29.10;6.45;;;14.80;99.90;;;;;;4954341;28;20035;-83
2021/03/29 12:24:55;;;;;;;24.80;6.10;;;15.00;99.90;;;;;;4971177;28;20065;-82
2021/03/29 12:27:22;;;;;;;19.50;6.05;;;15.00;99.90;;;;;;4953222;28;20051;-82
2021/03/29 12:29:51;;;;;;;24.05;5.50;;;15.00;99.90;;;;;;4954527;28;20039;-82
2021/03/29 12:32:19;;;;;;;23.75;5.95;;;15.00;99.90;;;;;;4937945;28;20060;-81
2021/03/29 12:34:48;;;;;;;20.98;5.90;;;15.00;99.90;;;;;;4970201;28;20039;-81
2021/03/29 12:37:16;;;;;;;23.45;6.07;;;15.10;99.90;;;;;;4953182;28;20059;-80
2021/03/29 12:39:55;;;;;;;23.02;5.68;;;15.40;99.90;;;;;;4951011;28;20089;-83
2021/03/29 12:42:24;;;;;;;26.67;6.43;;;15.70;99.90;;;;;;4953954;28;20047;-82
2021/03/29 12:44:51;;;;;;;19.55;5.63;;;15.80;99.90;;;;;;4968411;28;20043;-82
2021/03/29 12:47:18;;;;;;;23.55;6.18;;;16.00;99.90;;;;;;5030262;28;20069;-81
2021/03/29 12:49:44;;;;;;;23.27;6.20;;;15.90;99.90;;;;;;5025944;28;20075;-82
2021/03/29 12:52:10;;;;;;;25.27;5.72;;;16.00;99.90;;;;;;5012376;28;20464;-82
2021/03/29 12:54:37;;;;;;;22.63;5.38;;;15.90;99.90;;;;;;5044744;28;20047;-81
2021/03/29 12:57:04;;;;;;;24.90;6.10;;;16.00;99.90;;;;;;5049756;28;20037;-80
2021/03/29 12:59:31;;;;;;;24.25;5.90;;;16.00;99.90;;;;;;5033226;28;20049;-79
2021/03/29 13:01:57;;;;;;;26.27;6.00;;;16.20;99.90;;;;;;5023295;28;20132;-80
2021/03/29 13:07:06;;;;;;;28.90;6.10;;;16.50;99.90;;;;;;5015306;28;20136;-80
2021/03/29 13:12:03;;;;;;;23.10;5.60;;;16.80;99.90;;;;;;5051804;28;20053;-80